CYVM/YVM METAR and TAF weather

Enter ICAO airport designator
Station Type Date Time Source
CYVM METAR 2018/12/10 17:00 UTC NOAA

CYVM 101700Z 07003KT 15SM SKC M30/M33 A3016 RMK SLP216


Station Type Date Time Source
CYVM Decoded METAR 2018/12/10 17:00 UTC NOAA

Broughton Island Airport, Canada (CYVM) 67-33N 064-02W
Dec 10, 2018 - 12:00 PM EST / 2018.12.10 1700 UTC
Wind: from the ENE (070 degrees) at 3 MPH (3 KT):0
Visibility: 15 mile(s):0
Sky conditions: clear
Temperature: -22 F (-30 C)
Dew Point: -27 F (-33 C)
Relative Humidity: 75%
Pressure (altimeter): 30.16 in. Hg (1021 hPa)
ob: CYVM 101700Z 07003KT 15SM SKC M30/M33 A3016 RMK SLP216
cycle: 17

Station Type Date Time Source
CYVM TAF 2018/12/10 13:42 UTC NOAA

TAF CYVM 101239Z 1013/1101 VRB03KT P6SM SKC
RMK NXT FCST BY 101900Z


Example: see airport list